Flight Track Log - Related Links

Times and Time Zones

All times are in EDT time to prevent confusion due to time zone crossing. See the SWA902 flight status page for this flight to view local times or setup timezone preferences in your user account.

Time Position Orientation Groundspeed Altitude Reporting Facility
EDT Latitude Longitude Course Direction KTS MPH feet Rate Location/Type
Sun 07:45:43 PM 38.7197 -90.2597 126° Southeast 155 178 2,200  Level FAA TRACON SMA TRACON (SMA)
Sun 07:46:03 PM 38.7075 -90.2389 127° Southeast 186 214 3,000 1,800 Climbing FAA TRACON SMA TRACON (SMA)
Sun 07:46:23 PM 38.6931 -90.2256 144° Southeast 209 241 3,400 1,500 Climbing FAA TRACON SMA TRACON (SMA)
Sun 07:46:43 PM 38.6722 -90.2239 176° South 241 277 4,000 2,550 Climbing FAA TRACON SMA TRACON (SMA)
Sun 07:47:03 PM 38.6478 -90.2408 208° Southwest 268 308 5,100 3,150 Climbing FAA TRACON SMA TRACON (SMA)
Sun 07:47:23 PM 38.6419 -90.2694 255° West 283 326 6,100 3,150 Climbing FAA TRACON SMA TRACON (SMA)
Sun 07:47:43 PM 38.6511 -90.2975 293° West 285 328 7,200 3,450 Climbing FAA TRACON SMA TRACON (SMA)
Sun 07:48:03 PM 38.6683 -90.3289 305° West 281 323 8,400 3,600 Climbing FAA TRACON SMA TRACON (SMA)
Sun 07:48:23 PM 38.6822 -90.3550 304° West 286 329 9,600 3,300 Climbing FAA TRACON SMA TRACON (SMA)
Sun 07:48:43 PM 38.6969 -90.3839 303° West 308 354 10,600 1,950 Climbing FAA TRACON SMA TRACON (SMA)
Sun 07:49:03 PM 38.7161 -90.4136 310° West 342 394 10,900 1,800 Climbing FAA TRACON SMA TRACON (SMA)
Sun 07:49:23 PM 38.7417 -90.4497 312° West 355 409 11,800 2,550 Climbing FAA TRACON SMA TRACON (SMA)
Sun 07:49:43 PM 38.7606 -90.4783 310° West 350 403 12,600 2,550 Climbing FAA TRACON SMA TRACON (SMA)
Sun 07:50:03 PM 38.7803 -90.5086 310° West 355 409 13,500 4,500 Climbing FAA TRACON SMA TRACON (SMA)
Sun 07:50:23 PM 38.8042 -90.5461 309° West 356 410 15,600 4,950 Climbing FAA TRACON SMA TRACON (SMA)
Sun 07:50:43 PM 38.8219 -90.5747 309° West 341 392 16,800 2,400 Climbing FAA TRACON SMA TRACON (SMA)
Sun 07:51:03 PM 38.8408 -90.6036 310° West 337 388 17,200 1,650 Climbing FAA TRACON SMA TRACON (SMA)
Sun 07:51:23 PM 38.8653 -90.6419 309° West 358 412 17,900 2,400 Climbing FAA TRACON SMA TRACON (SMA)
Sun 07:51:43 PM 38.8839 -90.6739 307° West 366 421 18,800 2,550 Climbing FAA TRACON SMA TRACON (SMA)
Sun 07:52:03 PM 38.9036 -90.7053 309° West 368 423 19,600 2,400 Climbing FAA TRACON SMA TRACON (SMA)
Sun 07:52:23 PM 38.9244 -90.7372 310° West 374 430 20,400 2,850 Climbing FAA TRACON SMA TRACON (SMA)
Sun 07:52:43 PM 38.9500 -90.7775 309° West 379 436 21,500 2,700 Climbing FAA TRACON SMA TRACON (SMA)
Sun 07:53:03 PM 38.9697 -90.8111 307° West 382 440 22,200 2,250 Climbing FAA TRACON SMA TRACON (SMA)
Sun 07:53:23 PM 38.9906 -90.8442 309° West 386 444 23,000 2,550 Climbing FAA TRACON SMA TRACON (SMA)
Sun 07:53:43 PM 39.0172 -90.8856 310° West 389 448 23,900 2,400 Climbing FAA TRACON SMA TRACON (SMA)
Sun 07:54:03 PM 39.0383 -90.9197 309° West 394 453 24,600 2,100 Climbing FAA TRACON SMA TRACON (SMA)
Sun 07:54:23 PM 39.0597 -90.9536 309° West 397 457 25,300 2,100 Climbing FAA TRACON SMA TRACON (SMA)
Sun 07:54:43 PM 39.0858 -90.9981 307° West 404 465 26,000 1,950 Climbing FAA TRACON SMA TRACON (SMA)
Sun 07:55:03 PM 39.1056 -91.0353 304° West 408 470 26,600 1,950 Climbing FAA TRACON SMA TRACON (SMA)
Sun 07:55:23 PM 39.1239 -91.0736 302° West 409 471 27,300 2,100 Climbing FAA TRACON SMA TRACON (SMA)
Sun 07:55:43 PM 39.1467 -91.1225 301° West 414 476 28,000 1,538 Climbing FAA TRACON SMA TRACON (SMA)
Sun 07:56:02 PM 39.1550 -91.1953 278° West 403 464 28,300 2,051 Climbing Kansas City Center
Sun 07:57:02 PM 39.2069 -91.3289 297° West 412 474 30,700 1,790 Climbing Kansas City Center
Sun 07:58:06 PM 39.2586 -91.4619 297° West 415 478 32,000 912 Climbing Kansas City Center
Sun 07:59:07 PM 39.3194 -91.6186 297° West 411 473 32,600 984 Climbing Kansas City Center
Sun 08:00:08 PM 39.3672 -91.7400 297° West 406 467 34,000 677 Climbing Kansas City Center
Sun 08:01:11 PM 39.4183 -91.8667 298° West 402 463 34,000  Level Kansas City Center
Sun 08:02:12 PM 39.4675 -91.9953 296° West 401 461 34,000  Level Kansas City Center
Sun 08:03:14 PM 39.5256 -92.1497 296° West 400 460 34,000  Level Kansas City Center
Sun 08:04:18 PM 39.5758 -92.2786 297° West 401 461 34,000  Level Kansas City Center
Sun 08:05:19 PM 39.6244 -92.4061 296° West 399 459 34,000  Level Kansas City Center
Sun 08:06:21 PM 39.6844 -92.5261 303° West 402 463 34,000  Level Kansas City Center
Sun 08:07:23 PM 39.7544 -92.6353 310° West 399 459 34,000  Level Kansas City Center
Sun 08:08:24 PM 39.8269 -92.7486 310° West 401 461 34,000  Level Kansas City Center
Sun 08:09:26 PM 39.8967 -92.8572 310° West 400 460 34,000  Level Kansas City Center
Sun 08:10:27 PM 39.9817 -92.9894 310° West 397 457 34,000  Level Kansas City Center
Sun 08:11:29 PM 40.0528 -93.1008 310° West 398 458 34,000  Level Kansas City Center
Sun 08:12:30 PM 40.1203 -93.2100 309° West 393 452 34,000  Level Kansas City Center
Sun 08:13:33 PM 40.1894 -93.3183 310° West 389 448 34,000  Level Kansas City Center
Sun 08:14:35 PM 40.2572 -93.4264 309° West 388 447 34,000  Level Kansas City Center
Sun 08:15:37 PM 40.3267 -93.5372 309° West 391 450 34,000  Level Kansas City Center
Sun 08:16:38 PM 40.4111 -93.6711 310° West 397 457 34,000  Level Kansas City Center
Sun 08:16:54 PM 40.4256 -93.6942 309° West 396 456 34,000  Level Minneapolis Center
Sun 08:17:55 PM 40.4956 -93.8083 309° West 399 459 34,000  Level Minneapolis Center
Sun 08:18:57 PM 40.5511 -93.9328 300° West 399 459 34,000  Level Minneapolis Center
Sun 08:19:58 PM 40.5992 -94.0622 296° West 398 458 34,000 -1,475 Level Minneapolis Center
Sun 08:20:59 PM 40.6569 -94.2111 297° West 388 447 31,000 -2,439 Descending Minneapolis Center
Sun 08:22:01 PM 40.7061 -94.3375 297° West 390 449 29,000 -1,707 Descending Minneapolis Center
Sun 08:23:02 PM 40.7517 -94.4506 298° West 362 417 27,500 -2,410 Descending Minneapolis Center
Sun 08:24:03 PM 40.7978 -94.5719 297° West 356 410 24,100 -2,976 Descending Minneapolis Center
Sun 08:25:05 PM 40.8461 -94.6956 297° West 374 430 21,400 -2,439 Descending Minneapolis Center
Sun 08:26:06 PM 40.8939 -94.8150 298° West 371 427 19,100 -2,291 Descending Minneapolis Center
Sun 08:26:55 PM 40.9453 -94.9106 305° West 355 409 17,200 -2,384 Descending Minneapolis Center
Sun 08:27:19 PM 40.9639 -94.9633 295° West 348 400 16,200 -973 Descending Minneapolis Center
Sun 08:28:09 PM 40.9806 -95.0394 286° West 340 391 16,000 -919 Descending Minneapolis Center
Sun 08:29:10 PM 41.0153 -95.1311 297° West 290 334 14,500 -1,415 Descending Minneapolis Center
Sun 08:30:12 PM 41.0511 -95.2264 297° West 286 329 13,100 -1,561 Descending Minneapolis Center
Sun 08:31:13 PM 41.0931 -95.3342 297° West 279 321 11,300 -1,623 Descending Minneapolis Center
Sun 08:32:14 PM 41.1244 -95.4242 295° West 274 315 9,800 -1,424 Descending Minneapolis Center
Sun 08:33:11 PM 41.1314 -95.5178 276° West 260 299 8,500 -1,415 Descending Minneapolis Center
Sun 08:34:17 PM 41.1153 -95.6106 257° West 264 304 6,900 -1,654 Descending Minneapolis Center
Sun 08:35:18 PM 41.1081 -95.6950 264° West 253 291 5,000 -1,820 Descending Minneapolis Center
Sun 08:36:19 PM 41.1672 -95.7628 319° Northwest 265 305 3,200 -1,041 Descending Minneapolis Center
Sun 08:37:19 PM 41.2142 -95.8097 323° Northwest 197 227 2,900 -595 Descending Minneapolis Center
Sun 08:38:20 PM 41.2544 -95.8494 323° Northwest 162 186 2,000 -739 Descending Minneapolis Center
Sun 08:39:37 PM 41.2886 -95.8769 329° Northwest 178 205 1,200 -623 Descending Minneapolis Center
Sun 08:41:00 PM 41.3000 -95.8833 294° West  Level FlightAware Approximate

Login

Don't have an account? Register now (free) for customized features, flight alerts, and more!